Time;durP1;ratioP1;P1;durP2;ratioP2;P2;SDS_P1;SDS_P2;PMS_P1;PMS_P2;Temp;Humidity;BMP_temperature;BMP_pressure;BME280_temperature;BME280_humidity;BME280_pressure;Samples;Min_cycle;Max_cycle;Signal;HPM_P1;HPM_P2
2023/01/27 00:00:12;;;;;;;19.67;11.43;;;;;;;5.00;55.13;98751.59;5017025;28;20026;-47
2023/01/27 00:02:39;;;;;;;15.13;10.80;;;;;;;4.99;54.95;98760.38;5035005;28;20022;-47
2023/01/27 00:05:07;;;;;;;14.57;11.05;;;;;;;5.03;55.14;98755.66;5017091;28;20025;-47
2023/01/27 00:07:33;;;;;;;16.40;11.77;;;;;;;5.03;55.44;98753.06;5034811;28;20449;-47
2023/01/27 00:09:58;;;;;;;15.30;11.48;;;;;;;5.02;55.34;98750.63;5034781;28;20022;-47
2023/01/27 00:15:11;;;;;;;16.67;11.17;;;;;;;5.06;54.90;98749.31;5034979;28;20124;-47
2023/01/27 00:17:37;;;;;;;15.02;11.32;;;;;;;5.09;54.09;98749.81;5016951;28;20422;-47
2023/01/27 00:20:04;;;;;;;17.45;11.40;;;;;;;5.03;54.61;98749.63;5034541;28;20109;-47
2023/01/27 00:25:14;;;;;;;16.55;12.32;;;;;;;4.88;54.88;98749.47;5019478;28;20032;-47
2023/01/27 00:27:40;;;;;;;13.73;10.27;;;;;;;4.82;54.73;98748.34;5016850;28;20026;-47
2023/01/27 00:30:06;;;;;;;15.02;11.02;;;;;;;4.82;54.59;98737.13;5016505;28;20041;-47
2023/01/27 00:35:17;;;;;;;20.02;11.88;;;;;;;4.74;55.17;98735.34;5034641;28;20632;-48
2023/01/27 00:37:43;;;;;;;17.77;12.98;;;;;;;4.82;54.86;98732.72;5016488;28;20060;-47
2023/01/27 00:40:15;;;;;;;16.35;11.60;;;;;;;4.86;55.35;98734.03;5034095;28;20072;-47
2023/01/27 00:42:40;;;;;;;16.02;11.27;;;;;;;4.89;54.57;98738.94;5016426;28;20022;-47
2023/01/27 00:47:51;;;;;;;16.45;11.98;;;;;;;4.94;55.54;98736.63;5034400;28;20518;-47
2023/01/27 00:50:18;;;;;;;17.33;12.23;;;;;;;4.95;55.11;98733.06;5034015;28;20051;-47
2023/01/27 00:52:44;;;;;;;15.88;11.90;;;;;;;4.99;55.02;98741.38;5032842;28;20046;-47
2023/01/27 00:55:11;;;;;;;16.90;11.48;;;;;;;5.08;54.98;98742.16;5032880;28;20167;-47
2023/01/27 00:57:37;;;;;;;16.33;12.18;;;;;;;5.18;55.17;98735.81;5015075;28;20056;-47
2023/01/27 01:00:05;;;;;;;15.05;12.00;;;;;;;5.18;54.72;98735.81;5014870;28;20110;-47
2023/01/27 01:02:30;;;;;;;15.40;12.05;;;;;;;5.15;53.92;98732.72;5032747;28;20106;-47
2023/01/27 01:04:56;;;;;;;15.68;11.80;;;;;;;5.18;54.09;98733.22;5032704;28;20075;-47
2023/01/27 01:07:22;;;;;;;16.23;11.80;;;;;;;5.26;53.90;98734.19;5032745;28;20403;-48
2023/01/27 01:09:47;;;;;;;19.52;12.27;;;;;;;5.20;53.65;98731.25;5015088;28;20029;-47
2023/01/27 01:12:13;;;;;;;22.92;17.80;;;;;;;5.16;54.12;98732.56;5032616;28;20026;-47
2023/01/27 01:14:38;;;;;;;20.80;15.52;;;;;;;5.12;53.16;98728.66;5032629;28;20530;-47
2023/01/27 01:17:04;;;;;;;23.88;19.08;;;;;;;4.91;53.45;98728.34;5032487;28;20029;-47
2023/01/27 01:19:30;;;;;;;17.55;14.05;;;;;;;4.78;53.81;98737.44;5032543;28;20056;-47
2023/01/27 01:21:55;;;;;;;25.17;16.00;;;;;;;4.73;54.57;98725.94;5014627;28;20025;-47
2023/01/27 01:24:22;;;;;;;16.63;12.32;;;;;;;4.83;55.08;98733.53;5032477;28;20049;-48
2023/01/27 01:26:47;;;;;;;19.92;11.48;;;;;;;4.98;54.83;98732.72;5032632;28;20040;-47
2023/01/27 01:29:13;;;;;;;18.63;13.85;;;;;;;5.10;54.57;98728.00;5032381;28;20097;-47
2023/01/27 01:31:39;;;;;;;18.30;12.60;;;;;;;5.18;54.30;98732.41;5014566;28;20026;-47
2023/01/27 01:34:04;;;;;;;17.45;13.05;;;;;;;5.08;53.79;98732.56;5032318;28;20052;-47
2023/01/27 01:36:30;;;;;;;19.77;12.43;;;;;;;4.96;53.83;98732.09;5031692;28;20393;-47
2023/01/27 01:38:56;;;;;;;16.63;12.80;;;;;;;4.91;54.15;98729.19;5014258;28;20037;-47
2023/01/27 01:41:22;;;;;;;21.25;14.02;;;;;;;5.02;54.30;98733.22;5014484;28;20025;-47
2023/01/27 01:43:49;;;;;;;18.27;13.82;;;;;;;4.99;53.77;98729.16;5014627;28;20100;-47
2023/01/27 01:46:16;;;;;;;19.83;13.82;;;;;;;4.89;54.28;98733.72;5032093;28;20057;-47
2023/01/27 01:48:51;;;;;;;22.35;12.32;;;;;;;4.84;54.53;98724.78;5014478;28;20079;-47
2023/01/27 01:51:30;;;;;;;28.33;13.63;;;;;;;4.87;54.03;98717.47;4987049;28;1292613;-47
2023/01/27 01:54:01;;;;;;;17.13;12.95;;;;;;;4.93;53.78;98719.41;5015083;28;20037;-47
2023/01/27 01:56:33;;;;;;;16.13;12.38;;;;;;;4.91;53.82;98717.94;5032845;28;20036;-47
2023/01/27 01:59:02;;;;;;;17.15;13.27;;;;;;;4.82;53.83;98717.13;5032702;28;20068;-47
2023/01/27 02:01:28;;;;;;;17.20;12.95;;;;;;;4.83;53.94;98715.34;5032626;28;20030;-47
2023/01/27 02:04:00;;;;;;;19.02;13.43;;;;;;;4.89;54.66;98702.53;4998504;28;20517;-47
2023/01/27 02:06:27;;;;;;;19.80;14.05;;;;;;;4.95;53.73;98695.81;5032719;28;20033;-47
2023/01/27 02:08:53;;;;;;;19.13;13.40;;;;;;;4.93;53.75;98697.78;5032646;28;20053;-47
2023/01/27 02:11:19;;;;;;;19.58;13.00;;;;;;;4.85;53.80;98696.03;5014931;28;20483;-47
2023/01/27 02:13:46;;;;;;;17.75;12.73;;;;;;;4.83;54.09;98697.97;5032737;28;20025;-47
2023/01/27 02:16:12;;;;;;;17.65;13.43;;;;;;;4.72;53.82;98695.69;5032427;28;20036;-47
2023/01/27 02:18:40;;;;;;;18.63;14.05;;;;;;;4.62;54.17;98692.44;5032440;28;20115;-47
2023/01/27 02:21:06;;;;;;;21.33;14.27;;;;;;;4.68;55.19;98690.00;5014527;28;20395;-47
2023/01/27 02:23:39;;;;;;;19.58;13.00;;;;;;;4.69;54.68;98683.84;5032367;28;20025;-47
2023/01/27 02:26:07;;;;;;;17.48;11.98;;;;;;;4.69;53.94;98680.41;5032248;28;20029;-47
2023/01/27 02:28:33;;;;;;;18.20;13.20;;;;;;;4.58;54.30;98677.16;5032300;28;20028;-47
2023/01/27 02:30:58;;;;;;;21.70;14.15;;;;;;;4.51;54.93;98691.78;5032435;28;20037;-47
2023/01/27 02:33:24;;;;;;;21.98;16.92;;;;;;;4.41;54.67;98678.13;5032161;28;20491;-47
2023/01/27 02:36:05;;;;;;;22.33;16.02;;;;;;;4.42;55.05;98679.75;5014326;28;20087;-47
2023/01/27 02:38:37;;;;;;;20.27;14.43;;;;;;;4.44;54.83;98677.78;5014355;28;20025;-47
2023/01/27 02:41:19;;;;;;;21.08;14.52;;;;;;;4.38;55.25;98684.44;5031947;28;20017;-47
2023/01/27 02:43:47;;;;;;;22.73;14.18;;;;;;;4.51;55.03;98685.78;5032113;28;20105;-47
2023/01/27 02:46:13;;;;;;;22.27;14.60;;;;;;;4.59;54.75;98680.59;5032020;28;20029;-47
2023/01/27 02:48:39;;;;;;;21.75;14.23;;;;;;;4.64;54.95;98682.69;5031963;28;20112;-47
2023/01/27 02:51:05;;;;;;;18.15;13.63;;;;;;;4.65;54.00;98684.31;5031738;28;20120;-48
2023/01/27 02:53:30;;;;;;;22.33;16.52;;;;;;;4.64;53.88;98678.28;5014189;28;20033;-47
2023/01/27 02:55:56;;;;;;;19.83;14.93;;;;;;;4.63;54.47;98689.69;5014025;28;20026;-47
2023/01/27 02:58:21;;;;;;;22.95;14.73;;;;;;;4.64;55.09;98686.09;5031856;28;20079;-47
2023/01/27 03:00:47;;;;;;;22.42;14.88;;;;;;;4.72;54.96;98673.09;5031719;28;20029;-47
2023/01/27 03:03:13;;;;;;;27.40;15.80;;;;;;;4.89;55.02;98683.47;5014011;28;20098;-47
2023/01/27 03:05:39;;;;;;;23.70;15.27;;;;;;;4.85;54.10;98675.22;5031747;28;20056;-47
2023/01/27 03:08:04;;;;;;;22.60;15.35;;;;;;;4.83;54.24;98678.94;5031771;28;20398;-47
2023/01/27 03:10:30;;;;;;;20.17;13.30;;;;;;;4.85;54.05;98670.03;5031638;28;20040;-47
2023/01/27 03:12:56;;;;;;;19.75;14.60;;;;;;;4.83;54.09;98661.56;5014321;28;20032;-47
2023/01/27 03:18:14;;;;;;;24.45;17.75;;;;;;;4.96;53.97;98663.66;5031983;28;20083;-47
2023/01/27 03:20:42;;;;;;;23.27;14.70;;;;;;;5.08;54.87;98669.34;5031561;28;20029;-47
2023/01/27 03:23:08;;;;;;;23.17;13.93;;;;;;;5.16;53.65;98664.13;5031570;28;20754;-47
2023/01/27 03:25:34;;;;;;;20.05;14.05;;;;;;;5.20;53.47;98662.81;5031618;28;20076;-47
2023/01/27 03:28:00;;;;;;;17.80;13.73;;;;;;;5.17;53.65;98661.34;5031796;28;20453;-47
2023/01/27 03:30:27;;;;;;;19.85;14.57;;;;;;;5.05;53.08;98654.88;5013810;28;20018;-47
2023/01/27 03:32:53;;;;;;;20.75;14.82;;;;;;;4.95;53.87;98657.66;5013749;28;20026;-47
2023/01/27 03:35:19;;;;;;;20.15;15.07;;;;;;;4.90;53.52;98659.94;5031451;28;20021;-47
2023/01/27 03:48:41;;;;;;;20.58;13.05;;;;;;;4.90;53.69;98649.53;5031443;28;20036;-47
2023/01/27 03:51:08;;;;;;;27.27;14.88;;;;;;;4.86;53.84;98650.81;5031389;28;20053;-48
2023/01/27 03:53:35;;;;;;;21.33;13.68;;;;;;;4.89;53.79;98650.50;5031364;28;20128;-48
2023/01/27 03:56:01;;;;;;;20.42;16.75;;;;;;;4.90;54.18;98646.91;5031176;28;20108;-47
2023/01/27 03:58:32;;;;;;;23.15;15.30;;;;;;;4.89;54.64;98649.69;5013404;28;20083;-47
2023/01/27 04:01:00;;;;;;;20.60;13.85;;;;;;;4.94;53.61;98643.00;5033125;28;20029;-47
2023/01/27 04:09:05;;;;;;;20.33;13.50;;;;;;;4.93;53.65;98646.59;5035211;28;20037;-47
2023/01/27 04:14:16;;;;;;;18.65;14.07;;;;;;;4.70;52.98;98643.03;5034849;28;20037;-47
2023/01/27 04:16:45;;;;;;;22.27;16.17;;;;;;;4.51;54.18;98650.19;5016899;28;20396;-47
2023/01/27 04:19:11;;;;;;;20.50;14.80;;;;;;;4.42;54.74;98651.16;5016876;28;20491;-47
2023/01/27 04:21:37;;;;;;;24.00;16.92;;;;;;;4.40;54.72;98646.13;5016804;28;20384;-47
2023/01/27 04:24:03;;;;;;;23.15;14.60;;;;;;;4.35;54.50;98645.00;5034795;28;20018;-47
2023/01/27 04:26:33;;;;;;;20.55;13.32;;;;;;;4.22;54.67;98648.06;5016730;28;20029;-47
2023/01/27 04:29:03;;;;;;;25.48;17.45;;;;;;;4.12;55.51;98642.19;5034417;28;20567;-47
2023/01/27 04:31:31;;;;;;;27.65;15.25;;;;;;;3.99;55.52;98643.47;5016632;28;20116;-47
2023/01/27 04:33:56;;;;;;;24.20;16.48;;;;;;;3.98;55.92;98654.84;5016939;28;20025;-47
2023/01/27 04:36:22;;;;;;;22.35;15.40;;;;;;;3.97;56.45;98655.00;5034343;28;20025;-47
2023/01/27 04:38:48;;;;;;;21.88;15.40;;;;;;;4.01;56.23;98635.53;5034342;28;20060;-47
2023/01/27 04:41:13;;;;;;;26.52;15.85;;;;;;;3.94;56.14;98648.34;5016603;28;20061;-47
2023/01/27 04:43:39;;;;;;;24.35;17.15;;;;;;;3.91;56.14;98645.25;5016820;28;20025;-47
2023/01/27 04:46:04;;;;;;;24.75;15.20;;;;;;;3.93;56.62;98638.13;5034163;28;20022;-47
2023/01/27 04:48:30;;;;;;;23.52;16.15;;;;;;;3.91;56.30;98640.88;5016604;28;20025;-47
2023/01/27 04:50:56;;;;;;;26.73;14.98;;;;;;;3.90;56.11;98636.63;5016097;28;20057;-47
2023/01/27 04:53:21;;;;;;;25.30;14.38;;;;;;;3.90;55.95;98648.81;5034085;28;20029;-47
2023/01/27 04:55:48;;;;;;;24.45;16.23;;;;;;;3.90;56.74;98652.22;5016109;28;20037;-47
2023/01/27 04:58:16;;;;;;;22.23;15.35;;;;;;;3.96;56.21;98642.97;5016140;28;20053;-47
2023/01/27 05:00:43;;;;;;;22.23;14.00;;;;;;;3.93;56.73;98653.69;5034043;28;20488;-47
2023/01/27 05:03:10;;;;;;;27.52;16.48;;;;;;;3.95;56.71;98657.75;5033814;28;20501;-47
2023/01/27 05:05:36;;;;;;;25.65;18.55;;;;;;;4.06;56.84;98648.03;5016456;28;20029;-47
2023/01/27 05:08:06;;;;;;;33.92;18.15;;;;;;;4.09;56.96;98648.53;5015978;28;20061;-47
2023/01/27 05:10:32;;;;;;;26.40;16.73;;;;;;;4.24;55.99;98648.72;5033679;28;20108;-47
2023/01/27 05:13:01;;;;;;;29.35;17.02;;;;;;;4.24;55.88;98655.69;5014816;28;20109;-47
2023/01/27 05:15:28;;;;;;;29.08;18.10;;;;;;;4.25;55.38;98645.16;5015834;28;20029;-47
2023/01/27 05:17:54;;;;;;;28.80;17.27;;;;;;;4.34;55.75;98648.56;5033637;28;20021;-47
2023/01/27 05:20:20;;;;;;;26.23;18.00;;;;;;;4.44;55.59;98648.41;5015661;28;20060;-47
2023/01/27 05:22:46;;;;;;;28.55;15.73;;;;;;;4.53;54.90;98644.84;5033523;28;20026;-47
2023/01/27 05:25:12;;;;;;;24.00;16.63;;;;;;;4.43;54.59;98645.00;5033491;28;20032;-47
2023/01/27 05:27:37;;;;;;;25.95;16.48;;;;;;;4.33;54.80;98646.94;5033403;28;20025;-47
2023/01/27 05:30:03;;;;;;;27.52;16.73;;;;;;;4.23;55.52;98648.88;5015512;28;20067;-47
2023/01/27 05:32:29;;;;;;;25.00;16.77;;;;;;;4.29;55.96;98651.66;5015767;28;20048;-47
2023/01/27 05:34:54;;;;;;;28.30;17.98;;;;;;;4.34;55.91;98651.16;5015652;28;20021;-47
2023/01/27 05:37:20;;;;;;;28.15;17.73;;;;;;;4.44;55.75;98654.41;5033221;28;20030;-47
2023/01/27 05:39:46;;;;;;;29.05;17.90;;;;;;;4.44;55.57;98651.81;5033130;28;20031;-47
2023/01/27 05:42:11;;;;;;;26.50;17.92;;;;;;;4.30;55.49;98653.25;5033023;28;20120;-47
2023/01/27 05:44:37;;;;;;;45.90;32.30;;;;;;;4.29;56.16;98653.44;5015351;28;20033;-47
2023/01/27 05:47:02;;;;;;;30.35;20.25;;;;;;;4.47;56.08;98651.50;5015487;28;20503;-47
2023/01/27 05:49:28;;;;;;;29.42;19.13;;;;;;;4.56;55.69;98647.91;4998942;28;20034;-47
2023/01/27 05:51:54;;;;;;;24.50;18.20;;;;;;;4.68;55.71;98651.00;4998658;28;20045;-47
2023/01/27 05:54:19;;;;;;;24.55;17.85;;;;;;;4.64;55.46;98654.09;5032880;28;20590;-47
2023/01/27 05:56:45;;;;;;;24.30;16.40;;;;;;;4.73;55.96;98648.75;5015092;28;20034;-47
2023/01/27 05:59:11;;;;;;;23.75;18.83;;;;;;;4.88;55.45;98648.88;5032802;28;20047;-47
2023/01/27 06:01:36;;;;;;;26.25;16.90;;;;;;;4.83;54.89;98651.19;5014927;28;20061;-48
2023/01/27 06:04:03;;;;;;;25.58;16.75;;;;;;;4.77;54.68;98647.44;5014947;28;20030;-47
2023/01/27 06:06:30;;;;;;;21.45;16.70;;;;;;;4.81;53.93;98647.94;5014858;28;20034;-47
2023/01/27 06:08:55;;;;;;;25.60;17.85;;;;;;;4.65;54.17;98664.34;5032635;28;20025;-47
2023/01/27 06:11:23;;;;;;;29.73;17.60;;;;;;;4.44;55.03;98659.59;5014805;28;20029;-47
2023/01/27 06:13:48;;;;;;;23.27;17.02;;;;;;;4.31;54.78;98659.28;5015096;28;20041;-48
2023/01/27 06:16:16;;;;;;;28.90;17.27;;;;;;;4.34;55.15;98656.34;5014722;28;20053;-47
2023/01/27 06:18:42;;;;;;;25.35;17.88;;;;;;;4.47;55.66;98656.69;5014743;28;20040;-47
2023/01/27 06:21:10;;;;;;;28.30;18.40;;;;;;;4.60;55.03;98653.59;5014589;28;20487;-47
2023/01/27 06:23:36;;;;;;;33.30;18.48;;;;;;;4.51;54.85;98660.59;4998136;28;20391;-47
2023/01/27 06:26:11;;;;;;;24.88;17.15;;;;;;;4.43;54.90;98654.56;5014504;28;20087;-47
2023/01/27 06:28:38;;;;;;;31.43;17.63;;;;;;;4.44;55.58;98649.22;5032317;28;20430;-47
2023/01/27 06:31:12;;;;;;;26.27;17.30;;;;;;;4.45;55.90;98663.84;5014460;28;20022;-47
2023/01/27 06:33:38;;;;;;;26.15;19.30;;;;;;;4.50;55.90;98661.56;5014522;28;20045;-47
2023/01/27 06:36:06;;;;;;;28.15;18.48;;;;;;;4.58;55.84;98660.75;5014470;28;20407;-47
2023/01/27 06:38:32;;;;;;;26.25;17.85;;;;;;;4.60;55.37;98664.81;5032181;28;20056;-47
2023/01/27 06:40:59;;;;;;;29.73;17.90;;;;;;;4.67;55.31;98662.38;5014191;28;20116;-47
2023/01/27 06:43:24;;;;;;;23.45;17.33;;;;;;;4.74;55.07;98652.16;5014340;28;20457;-47
2023/01/27 06:45:51;;;;;;;29.50;19.52;;;;;;;4.67;55.01;98658.97;5014274;28;20025;-47
2023/01/27 06:48:17;;;;;;;27.27;19.40;;;;;;;4.59;55.35;98660.59;5031955;28;20029;-47
2023/01/27 06:50:43;;;;;;;28.38;19.02;;;;;;;4.60;55.36;98656.22;5031722;28;20029;-48
2023/01/27 06:53:08;;;;;;;43.22;20.20;;;;;;;4.68;55.12;98660.59;5010798;28;20045;-47
2023/01/27 06:55:40;;;;;;;39.95;20.50;;;;;;;4.78;54.96;98654.25;5012201;28;20430;-47
2023/01/27 06:58:07;;;;;;;31.73;19.00;;;;;;;4.65;54.37;98655.72;5012495;28;20049;-48
2023/01/27 07:00:33;;;;;;;31.02;19.58;;;;;;;4.46;54.13;98652.47;5011999;28;20042;-47
2023/01/27 07:02:59;;;;;;;32.60;20.70;;;;;;;4.47;54.86;98664.50;5010817;28;20467;-47
2023/01/27 07:05:25;;;;;;;37.28;20.65;;;;;;;4.49;55.30;98651.34;5012402;28;20037;-47
2023/01/27 07:07:50;;;;;;;28.35;18.25;;;;;;;4.42;55.29;98663.34;5012029;28;20053;-47
2023/01/27 07:10:16;;;;;;;32.65;20.30;;;;;;;4.30;55.25;98655.06;5010741;28;20036;-47
2023/01/27 07:12:42;;;;;;;28.52;17.90;;;;;;;4.26;55.57;98656.34;5012301;28;20026;-47
2023/01/27 07:15:10;;;;;;;32.90;18.95;;;;;;;4.44;56.35;98656.22;5010682;28;20022;-47
2023/01/27 07:17:36;;;;;;;37.80;18.75;;;;;;;4.56;55.55;98657.50;5010712;28;20026;-47
2023/01/27 07:20:03;;;;;;;31.92;18.70;;;;;;;4.60;55.28;98661.41;5010652;28;20129;-47
2023/01/27 07:22:29;;;;;;;30.48;18.35;;;;;;;4.69;54.90;98662.22;5010645;28;20030;-48
2023/01/27 07:24:54;;;;;;;85.50;67.45;;;;;;;4.63;54.69;98655.91;5011933;28;20511;-47
2023/01/27 07:27:21;;;;;;;43.90;32.00;;;;;;;4.73;55.87;98655.72;5011912;28;20022;-47
2023/01/27 07:29:47;;;;;;;30.35;18.30;;;;;;;4.83;54.94;98663.34;5010845;28;20033;-47
2023/01/27 07:32:13;;;;;;;28.52;16.80;;;;;;;4.92;54.74;98664.97;5011852;28;20026;-47
2023/01/27 07:34:38;;;;;;;29.92;18.73;;;;;;;4.94;53.88;98660.41;5011842;28;20037;-47
2023/01/27 07:37:04;;;;;;;22.63;16.33;;;;;;;4.95;55.13;98655.06;5015660;28;20033;-47
2023/01/27 07:39:30;;;;;;;25.92;17.35;;;;;;;5.05;53.93;98657.47;5014455;28;20499;-48
2023/01/27 07:41:57;;;;;;;31.65;18.13;;;;;;;5.09;53.95;98657.94;5015615;28;20488;-47
2023/01/27 07:44:23;;;;;;;23.55;17.80;;;;;;;5.05;53.83;98664.44;5014711;28;20466;-47
2023/01/27 07:46:49;;;;;;;27.75;16.88;;;;;;;4.96;53.93;98667.06;5015544;28;20101;-47
2023/01/27 07:49:14;;;;;;;25.27;17.20;;;;;;;4.90;53.31;98664.31;5014269;28;20141;-47
2023/01/27 07:51:40;;;;;;;25.90;16.83;;;;;;;4.73;53.70;98666.13;5021737;28;20529;-47
2023/01/27 07:54:06;;;;;;;32.85;18.15;;;;;;;4.64;53.85;98664.50;5035244;28;20032;-47
2023/01/27 07:56:31;;;;;;;29.33;17.00;;;;;;;4.64;54.83;98667.09;5017654;28;20036;-47
2023/01/27 07:58:57;;;;;;;26.55;17.23;;;;;;;4.73;54.48;98668.72;5035043;28;20184;-47
2023/01/27 08:01:23;;;;;;;26.27;18.02;;;;;;;4.83;53.97;98666.78;5017237;28;20025;-47
2023/01/27 08:03:49;;;;;;;25.65;17.25;;;;;;;4.86;54.28;98661.22;5035452;28;20458;-47
2023/01/27 08:06:14;;;;;;;28.00;18.40;;;;;;;4.93;53.98;98661.38;5034926;28;20028;-47
2023/01/27 08:08:40;;;;;;;25.67;16.35;;;;;;;4.83;53.87;98656.38;5017109;28;20487;-47
2023/01/27 08:11:08;;;;;;;27.30;18.70;;;;;;;4.69;54.17;98664.81;5000928;28;20513;-47
2023/01/27 08:13:34;;;;;;;28.40;17.67;;;;;;;4.58;54.28;98658.97;5034803;28;20395;-47
2023/01/27 08:16:04;;;;;;;23.98;15.60;;;;;;;4.52;54.42;98661.41;5017370;28;20033;-47
2023/01/27 08:18:32;;;;;;;24.08;15.57;;;;;;;4.55;54.67;98664.50;5034966;28;20414;-47
2023/01/27 08:21:04;;;;;;;24.55;15.48;;;;;;;4.47;54.65;98661.09;5034583;28;20084;-47
2023/01/27 08:23:32;;;;;;;28.00;16.70;;;;;;;4.40;55.36;98666.91;5016882;28;20502;-47
2023/01/27 08:26:00;;;;;;;25.20;15.00;;;;;;;4.53;54.80;98669.03;5034500;28;20029;-47
2023/01/27 08:28:28;;;;;;;25.90;14.98;;;;;;;4.55;54.98;98664.50;5016803;28;20022;-47
2023/01/27 08:30:53;;;;;;;24.45;18.63;;;;;;;4.45;54.71;98670.81;5034338;28;20026;-47
2023/01/27 08:33:22;;;;;;;24.52;15.25;;;;;;;4.29;55.22;98675.03;5016678;28;20018;-47
2023/01/27 08:35:49;;;;;;;28.02;17.45;;;;;;;4.26;55.12;98684.91;5034528;28;20033;-47
2023/01/27 08:38:17;;;;;;;21.38;15.18;;;;;;;4.32;55.06;98677.28;5016589;28;20022;-47
2023/01/27 08:40:44;;;;;;;23.83;16.52;;;;;;;4.39;55.27;98678.28;5034149;28;20036;-47
2023/01/27 08:43:10;;;;;;;20.80;15.80;;;;;;;4.40;54.96;98679.91;5016487;28;20021;-47
2023/01/27 08:45:36;;;;;;;23.25;16.08;;;;;;;4.34;54.68;98683.13;5034335;28;20445;-47
2023/01/27 08:48:04;;;;;;;23.48;16.88;;;;;;;4.39;55.08;98680.09;5034139;28;20026;-47
2023/01/27 08:50:31;;;;;;;23.58;15.73;;;;;;;4.52;55.54;98674.41;5034110;28;20033;-47
2023/01/27 08:52:58;;;;;;;22.00;15.10;;;;;;;4.68;55.40;98679.59;5033867;28;20072;-47
2023/01/27 08:55:31;;;;;;;25.15;16.00;;;;;;;4.68;54.24;98678.78;5034087;28;20028;-47
2023/01/27 08:57:58;;;;;;;29.17;14.73;;;;;;;4.68;54.95;98676.19;5034249;28;20048;-47
2023/01/27 09:00:25;;;;;;;32.72;15.85;;;;;;;4.68;55.31;98678.78;5033821;28;20024;-47
2023/01/27 09:02:51;;;;;;;28.92;19.80;;;;;;;4.77;55.02;98683.84;5033809;28;20029;-47
2023/01/27 09:05:18;;;;;;;25.17;15.45;;;;;;;4.82;55.11;98687.72;5033906;28;20033;-47
2023/01/27 09:07:45;;;;;;;21.50;14.75;;;;;;;4.89;54.47;98686.91;5033721;28;20033;-47
2023/01/27 09:10:12;;;;;;;23.77;16.75;;;;;;;4.90;54.75;98683.31;5015955;28;20113;-47
2023/01/27 09:12:38;;;;;;;31.15;16.02;;;;;;;5.04;54.06;98691.44;5033932;28;20029;-47
2023/01/27 09:15:04;;;;;;;30.02;15.52;;;;;;;5.05;53.95;98687.84;5015885;28;20403;-47
2023/01/27 09:17:29;;;;;;;29.27;15.25;;;;;;;5.04;53.94;98681.84;5033595;28;20026;-47
2023/01/27 09:19:55;;;;;;;27.98;15.73;;;;;;;4.99;54.06;98690.16;5033543;28;20517;-47
2023/01/27 09:22:21;;;;;;;22.58;14.38;;;;;;;5.05;54.45;98685.25;5015669;28;20026;-47
2023/01/27 09:24:46;;;;;;;25.75;16.63;;;;;;;5.09;53.51;98682.19;5015665;28;20021;-47
2023/01/27 09:27:12;;;;;;;26.20;14.65;;;;;;;5.11;53.21;98684.59;5015770;28;20026;-47
2023/01/27 09:29:38;;;;;;;21.23;15.93;;;;;;;5.10;53.93;98688.19;5015599;28;20581;-47
2023/01/27 09:32:04;;;;;;;23.95;15.50;;;;;;;5.25;53.78;98686.56;4999309;28;20064;-47
2023/01/27 09:34:30;;;;;;;25.17;15.93;;;;;;;5.38;53.98;98676.41;5033358;28;20362;-47
2023/01/27 09:37:04;;;;;;;22.52;14.75;;;;;;;5.48;53.06;98680.63;5033250;28;20372;-48
2023/01/27 09:39:40;;;;;;;27.27;16.08;;;;;;;5.51;52.90;98686.28;5033492;28;20440;-47
2023/01/27 09:42:09;;;;;;;24.52;15.10;;;;;;;5.42;52.98;98689.91;5015328;28;20032;-48
2023/01/27 09:44:48;;;;;;;26.83;15.52;;;;;;;5.48;53.34;98686.63;5015374;28;20033;-47
2023/01/27 09:47:42;;;;;;;23.33;14.82;;;;;;;5.36;52.97;98688.78;5033363;28;20037;-47
2023/01/27 09:50:32;;;;;;;25.58;15.75;;;;;;;5.37;53.76;98700.00;5033254;28;20476;-47
2023/01/27 09:53:17;;;;;;;20.73;14.88;;;;;;;5.49;53.08;98696.06;5032780;28;20140;-47
2023/01/27 09:56:01;;;;;;;30.98;20.50;;;;;;;5.56;52.92;98694.41;5032900;28;20033;-47
2023/01/27 09:58:27;;;;;;;25.00;16.58;;;;;;;5.51;52.21;98695.91;5032257;28;20021;-47
2023/01/27 10:01:28;;;;;;;19.08;14.18;;;;;;;5.58;53.05;98702.06;5032727;28;20136;-47
2023/01/27 10:04:29;;;;;;;25.33;14.80;;;;;;;5.66;53.21;98706.44;5015299;28;20037;-47
2023/01/27 10:07:25;;;;;;;20.38;15.13;;;;;;;5.63;52.44;98699.75;5014899;28;20167;-47
2023/01/27 10:10:41;;;;;;;23.90;15.15;;;;;;;5.64;52.56;98709.22;5032684;28;20038;-47
2023/01/27 10:13:09;;;;;;;29.77;14.77;;;;;;;5.86;51.84;98709.47;4990080;28;20537;-47
2023/01/27 10:15:55;;;;;;;22.63;14.77;;;;;;;6.02;52.29;98713.78;5032435;28;20026;-47
2023/01/27 10:18:50;;;;;;;23.10;14.35;;;;;;;6.19;52.27;98713.53;5032465;28;20033;-48
2023/01/27 10:21:28;;;;;;;20.35;15.07;;;;;;;6.23;51.31;98721.03;5006741;28;20051;-47
2023/01/27 10:24:21;;;;;;;22.92;14.80;;;;;;;6.20;50.83;98720.38;5032464;28;20037;-47
2023/01/27 10:27:03;;;;;;;24.58;17.88;;;;;;;6.06;51.93;98726.31;5018212;28;20029;-47
2023/01/27 10:29:45;;;;;;;25.10;15.00;;;;;;;5.83;51.68;98726.22;4999759;28;20038;-47
2023/01/27 10:32:19;;;;;;;25.33;14.15;;;;;;;5.82;52.10;98721.19;5032205;28;20030;-47
2023/01/27 10:34:54;;;;;;;26.15;14.65;;;;;;;5.85;51.74;98726.84;5014514;28;20033;-48
2023/01/27 10:37:23;;;;;;;26.55;14.20;;;;;;;5.95;52.00;98716.28;5032196;28;20107;-48
2023/01/27 10:40:04;;;;;;;19.80;13.15;;;;;;;6.08;51.37;98723.56;5032139;28;20033;-48
2023/01/27 10:42:45;;;;;;;20.48;14.15;;;;;;;6.23;51.42;98716.63;5032073;28;20029;-47
2023/01/27 10:45:22;;;;;;;19.45;13.10;;;;;;;6.26;50.35;98708.47;5032130;28;20036;-47
2023/01/27 10:48:18;;;;;;;18.98;13.18;;;;;;;6.10;50.73;98717.19;5014324;28;20036;-47
2023/01/27 10:50:45;;;;;;;;;;;;;;;6.04;50.78;98723.09;5011775;28;20116;-48
2023/01/27 10:53:18;;;;;;;20.35;13.65;;;;;;;5.95;50.57;98713.66;5031770;28;19960;-47
2023/01/27 10:56:08;;;;;;;21.52;13.57;;;;;;;5.91;51.03;98713.16;5014202;28;20407;-47
2023/01/27 10:58:58;;;;;;;29.48;13.68;;;;;;;5.96;51.86;98710.09;5031941;28;20037;-48
2023/01/27 11:01:33;;;;;;;19.15;12.32;;;;;;;5.98;51.52;98705.53;5031826;28;20086;-47
2023/01/27 11:04:05;;;;;;;18.27;12.63;;;;;;;5.96;51.41;98708.28;5014137;28;20136;-47
2023/01/27 11:06:36;;;;;;;20.27;14.30;;;;;;;5.87;51.56;98703.25;5031819;28;20506;-47
2023/01/27 11:09:14;;;;;;;20.88;13.15;;;;;;;5.94;51.42;98705.03;5013772;28;20041;-47
2023/01/27 11:11:44;;;;;;;17.98;11.75;;;;;;;6.18;51.01;98708.53;5031592;28;20028;-47
2023/01/27 11:14:30;;;;;;;18.55;13.35;;;;;;;6.22;50.76;98708.97;5031752;28;20025;-48
2023/01/27 11:17:23;;;;;;;17.73;12.35;;;;;;;6.23;50.22;98703.59;5013893;28;20507;-48
2023/01/27 11:19:58;;;;;;;18.40;11.95;;;;;;;6.17;51.01;98709.50;5031678;28;20108;-47
2023/01/27 11:22:36;;;;;;;17.15;12.40;;;;;;;6.26;50.81;98700.66;5031631;28;20022;-47
2023/01/27 11:25:27;;;;;;;15.80;12.15;;;;;;;6.35;50.30;98699.59;5031641;28;20091;-48
2023/01/27 11:28:24;;;;;;;18.38;12.80;;;;;;;6.29;49.76;98692.47;5031849;28;20407;-47
2023/01/27 11:31:03;;;;;;;18.08;12.20;;;;;;;6.24;50.41;98701.78;5020790;28;20037;-48
2023/01/27 11:33:57;;;;;;;22.08;12.77;;;;;;;6.14;50.40;98705.44;5031506;28;20061;-47
2023/01/27 11:36:26;;;;;;;19.30;12.65;;;;;;;6.16;50.48;98694.84;5031607;28;20127;-48
2023/01/27 11:38:57;;;;;;;23.40;12.98;;;;;;;6.21;51.53;98702.94;5013755;28;20525;-48
2023/01/27 11:41:23;;;;;;;17.70;12.60;;;;;;;6.37;50.88;98702.84;5031419;28;20029;-47
2023/01/27 11:43:49;;;;;;;15.05;9.98;;;;;;;6.39;50.13;98695.66;5031713;28;20025;-48
2023/01/27 11:46:22;;;;;;;14.90;11.10;;;;;;;6.27;50.45;98699.66;5013698;28;20028;-47
2023/01/27 11:48:56;;;;;;;18.48;12.15;;;;;;;6.24;50.30;98700.03;5031313;28;20025;-47
2023/01/27 11:51:25;;;;;;;16.98;11.30;;;;;;;6.31;50.13;98702.75;5031213;28;20053;-48
2023/01/27 11:54:14;;;;;;;15.50;12.75;;;;;;;6.31;50.35;98689.72;5031428;28;20083;-48
2023/01/27 11:56:43;;;;;;;18.17;11.63;;;;;;;6.34;50.08;98691.97;5018120;28;20388;-47
2023/01/27 11:59:33;;;;;;;17.70;11.77;;;;;;;6.20;49.07;98691.72;5013549;28;20040;-47
2023/01/27 12:02:10;;;;;;;15.93;11.68;;;;;;;5.97;49.74;98680.44;5031242;28;20022;-47
2023/01/27 12:04:50;;;;;;;16.70;11.88;;;;;;;5.86;51.01;98692.03;5031320;28;20036;-47
2023/01/27 12:07:28;;;;;;;17.88;12.35;;;;;;;5.99;51.41;98679.28;5031292;28;20025;-47